»·PEaware :: SWA4929 KLAX-KSFO

SWA4929 :: KLAX-KSFO

FLIGHT INFORMATION

Flight Status: Arrived
Operator:
Southwest Airlines
More flights by this operator :: More flights under this callsign
Pilot: Peter N. (19445)
Aircraft: BOEING 737-800
(B738)
More flights by this aircraft type
Origin: KLAX Los Angeles Intl
United States
Destination: KSFO San Francisco Intl
United States
More flights between these airports :: More routes between these airports
Route: +FIXIT5 RZS J501 BSR SERFR SERFR3
File this flight plan on PilotEdge
Remarks:
Altitude:
(Current/Filed)
30,000ft
Speed:
(Current/Filed)
447kts
Departed: 10-Jun-18 03:02 PM
Arrived: 10-Jun-18 04:00 PM
Distance/Time
Traveled:
293nm/0:58
Distance/Time
To Go:
Arrived

Flight Plot

Page will automatically refresh every two minutes.

Flight plan parsing failed; only flown route is shown


Map Options




Map Legend


Flown Route
Filed Route
Departure Airport
Arrival Airport
Navaid (VOR, NDB)
Fix

Horizontal Profiles

Position Reports

Time Latitude Longitude Heading Altitude Ground
Speed
10-Jun-18 14:45 33.946730 -118.401690 81 116ft 0kts
10-Jun-18 14:46 33.946730 -118.401690 81 116ft 0kts
10-Jun-18 14:47 33.946730 -118.401690 81 116ft 0kts
10-Jun-18 14:48 33.946730 -118.401690 81 116ft 0kts
10-Jun-18 14:49 33.946730 -118.401690 81 116ft 0kts
10-Jun-18 14:50 33.946730 -118.401690 81 116ft 0kts
10-Jun-18 14:51 33.946730 -118.401690 81 116ft 0kts
10-Jun-18 14:52 33.946730 -118.401690 81 116ft 0kts
10-Jun-18 14:53 33.946730 -118.401691 81 116ft 0kts
10-Jun-18 14:54 33.946649 -118.402336 81 116ft 0kts
10-Jun-18 14:55 33.946485 -118.402464 352 116ft 0kts
10-Jun-18 14:56 33.946485 -118.402464 352 116ft 0kts
10-Jun-18 14:57 33.946485 -118.402464 352 116ft 0kts
10-Jun-18 14:58 33.946620 -118.402479 355 116ft 5kts
10-Jun-18 14:59 33.949133 -118.401960 53 116ft 5kts
10-Jun-18 15:00 33.949193 -118.401885 42 116ft 0kts
10-Jun-18 15:01 33.949199 -118.401878 42 116ft 0kts
10-Jun-18 15:02 33.949115 -118.412214 262 122ft 130kts
10-Jun-18 15:03 33.943047 -118.474072 263 2035ft 225kts
10-Jun-18 15:04 33.938717 -118.550763 263 4924ft 239kts
10-Jun-18 15:05 33.932519 -118.630384 263 5009ft 238kts
10-Jun-18 15:06 33.926441 -118.708650 264 7056ft 264kts
10-Jun-18 15:07 33.919413 -118.799004 265 10089ft 281kts
10-Jun-18 15:08 33.926934 -118.897618 300 12371ft 316kts
10-Jun-18 15:09 33.979079 -118.983412 330 13669ft 324kts
10-Jun-18 15:10 34.067859 -119.002761 352 16446ft 335kts
10-Jun-18 15:11 34.148144 -119.032640 316 18651ft 344kts
10-Jun-18 15:12 34.200838 -119.130398 301 20917ft 357kts
10-Jun-18 15:13 34.251880 -119.234836 301 22997ft 368kts
10-Jun-18 15:14 34.304320 -119.342551 301 24881ft 379kts
10-Jun-18 15:15 34.357727 -119.453509 300 26581ft 389kts
10-Jun-18 15:16 34.412497 -119.567959 300 28150ft 399kts
10-Jun-18 15:17 34.464846 -119.677738 299 29558ft 406kts
10-Jun-18 15:18 34.527797 -119.794395 316 29948ft 432kts
10-Jun-18 15:19 34.620756 -119.892454 318 29930ft 447kts
10-Jun-18 15:20 34.714237 -119.991444 318 29942ft 447kts
10-Jun-18 15:21 34.807696 -120.090814 318 29955ft 447kts
10-Jun-18 15:22 34.900897 -120.190504 318 29998ft 445kts
10-Jun-18 15:23 34.992353 -120.288719 317 30015ft 435kts
10-Jun-18 15:24 35.081956 -120.385107 317 30015ft 430kts
10-Jun-18 15:25 35.162948 -120.472254 317 30022ft 430kts
10-Jun-18 15:26 35.252602 -120.568677 317 30025ft 430kts
10-Jun-18 15:27 35.328788 -120.650573 317 30024ft 430kts
10-Jun-18 15:28 35.416838 -120.745277 317 30032ft 430kts
10-Jun-18 15:29 35.507970 -120.840459 321 30039ft 432kts
10-Jun-18 15:30 35.603408 -120.929226 321 30036ft 432kts
10-Jun-18 15:31 35.697959 -121.017286 321 30036ft 434kts
10-Jun-18 15:32 35.790347 -121.103544 321 30034ft 436kts
10-Jun-18 15:33 35.871217 -121.179134 321 30034ft 437kts
10-Jun-18 15:34 35.968097 -121.269728 321 30044ft 439kts
10-Jun-18 15:35 36.065189 -121.360512 321 30084ft 440kts
10-Jun-18 15:36 36.145483 -121.424677 326 30133ft 441kts
10-Jun-18 15:37 36.248583 -121.505198 326 28043ft 429kts
10-Jun-18 15:38 36.351059 -121.585488 326 24386ft 433kts
10-Jun-18 15:39 36.441335 -121.656325 326 21023ft 356kts
10-Jun-18 15:40 36.523789 -121.721368 326 19979ft 355kts
10-Jun-18 15:41 36.605968 -121.786407 326 17833ft 345kts
10-Jun-18 15:42 36.685454 -121.849466 327 15728ft 335kts
10-Jun-18 15:43 36.765320 -121.903129 345 13658ft 326kts
10-Jun-18 15:44 36.852547 -121.927016 347 11566ft 317kts
10-Jun-18 15:45 36.933355 -121.949202 348 9950ft 302kts
10-Jun-18 15:46 37.012750 -121.977409 343 9474ft 280kts
10-Jun-18 15:47 37.076639 -122.002289 343 8972ft 262kts
10-Jun-18 15:48 37.139638 -122.026848 342 8521ft 261kts
10-Jun-18 15:49 37.207931 -122.053523 342 8182ft 259kts
10-Jun-18 15:50 37.276059 -122.080193 341 8137ft 258kts
10-Jun-18 15:51 37.341752 -122.106046 341 6651ft 269kts
10-Jun-18 15:52 37.406992 -122.131568 341 5347ft 223kts
10-Jun-18 15:53 37.463579 -122.151265 342 3982ft 204kts
10-Jun-18 15:54 37.515216 -122.168430 341 3147ft 183kts
10-Jun-18 15:55 37.546346 -122.202617 296 2762ft 139kts
10-Jun-18 15:56 37.563323 -122.243288 295 2022ft 129kts
10-Jun-18 15:57 37.579896 -122.282678 294 1340ft 126kts
10-Jun-18 15:58 37.596330 -122.321742 293 673ft 126kts
10-Jun-18 15:59 37.612864 -122.360975 293 35ft 124kts
10-Jun-18 16:00 37.618927 -122.378346 268 27ft 9kts
10-Jun-18 16:01 37.618120 -122.379501 193 29ft 12kts
10-Jun-18 16:02 37.613249 -122.381923 213 31ft 13kts
10-Jun-18 16:03 37.612825 -122.383164 298 31ft 0kts
10-Jun-18 16:04 37.612825 -122.383164 298 31ft 0kts
10-Jun-18 16:05 37.612825 -122.383164 298 31ft 0kts
10-Jun-18 16:06 37.612825 -122.383164 298 31ft 0kts
10-Jun-18 16:07 37.612825 -122.383164 298 31ft 0kts
10-Jun-18 16:08 37.612825 -122.383164 298 31ft 0kts
10-Jun-18 16:09 37.612825 -122.383164 298 31ft 0kts
10-Jun-18 16:10 37.612825 -122.383164 298 31ft 0kts
10-Jun-18 16:11 37.612825 -122.383164 298 31ft 0kts
10-Jun-18 16:12 37.612825 -122.383164 298 31ft 0kts
10-Jun-18 16:13 37.612825 -122.383164 298 31ft 0kts
10-Jun-18 16:14 37.612825 -122.383164 298 31ft 0kts

Navigation Log

Ident Type
Flight plan parsing failed, navigation log unavailable